Time;durP1;ratioP1;P1;durP2;ratioP2;P2;SDS_P1;SDS_P2;PMS_P1;PMS_P2;Temp;Humidity;BMP_temperature;BMP_pressure;BME280_temperature;BME280_humidity;BME280_pressure;Samples;Min_cycle;Max_cycle;Signal;HPM_P1;HPM_P2
2023/10/25 00:00:08;;;;;;;1.48;1.38;;;8.70;99.90;;;;;;5006473;28;20470;-80
2023/10/25 00:02:35;;;;;;;1.07;1.07;;;8.70;99.90;;;;;;5019998;28;20129;-80
2023/10/25 00:05:00;;;;;;;1.70;1.60;;;8.80;99.90;;;;;;5011021;28;20328;-80
2023/10/25 00:07:26;;;;;;;0.75;0.75;;;8.80;99.90;;;;;;4985969;28;20042;-81
2023/10/25 00:09:53;;;;;;;1.25;1.02;;;8.70;99.90;;;;;;5009060;28;20073;-80
2023/10/25 00:12:18;;;;;;;1.58;1.52;;;8.70;99.90;;;;;;5019821;28;20050;-80
2023/10/25 00:14:44;;;;;;;1.10;0.50;;;8.70;99.90;;;;;;4986369;28;20127;-81
2023/10/25 00:17:09;;;;;;;0.95;0.90;;;8.60;99.90;;;;;;4997526;28;20438;-80
2023/10/25 00:19:35;;;;;;;1.50;1.40;;;8.60;99.90;;;;;;5017816;28;20486;-80
2023/10/25 00:22:01;;;;;;;0.80;0.80;;;8.60;99.90;;;;;;5014223;28;20572;-80
2023/10/25 00:24:27;;;;;;;7.43;0.82;;;8.60;99.90;;;;;;5011482;28;20056;-80
2023/10/25 00:26:53;;;;;;;0.50;0.50;;;8.60;99.90;;;;;;5024006;28;20042;-80
2023/10/25 00:29:18;;;;;;;1.35;1.25;;;8.60;99.90;;;;;;5004237;28;20040;-80
2023/10/25 00:31:45;;;;;;;1.27;1.13;;;8.60;99.90;;;;;;5003737;28;20053;-80
2023/10/25 00:34:11;;;;;;;0.95;0.75;;;8.60;99.90;;;;;;5011848;28;20069;-80
2023/10/25 00:36:37;;;;;;;0.55;0.55;;;8.60;99.90;;;;;;5027438;28;20068;-80
2023/10/25 00:39:03;;;;;;;0.80;0.80;;;8.60;99.90;;;;;;5008351;28;20072;-81
2023/10/25 00:41:28;;;;;;;0.40;0.40;;;8.60;99.90;;;;;;5028102;28;20042;-80
2023/10/25 00:43:54;;;;;;;0.75;0.75;;;8.50;99.90;;;;;;5007204;28;20038;-80
2023/10/25 00:46:24;;;;;;;1.92;1.77;;;8.50;99.90;;;;;;5008487;28;20034;-80
2023/10/25 00:48:53;;;;;;;0.40;0.40;;;8.50;99.90;;;;;;5009505;28;20049;-80
2023/10/25 00:51:20;;;;;;;0.80;0.80;;;8.50;99.90;;;;;;4995123;28;20045;-80
2023/10/25 00:53:51;;;;;;;0.88;0.88;;;8.50;99.90;;;;;;5019046;28;20410;-81
2023/10/25 00:56:19;;;;;;;1.08;1.08;;;8.40;99.90;;;;;;5027753;28;20049;-80
2023/10/25 00:58:48;;;;;;;0.60;0.60;;;8.50;99.90;;;;;;5011852;28;20056;-81
2023/10/25 01:01:15;;;;;;;1.40;0.80;;;8.40;99.90;;;;;;5009109;28;20049;-81
2023/10/25 01:03:41;;;;;;;0.50;0.50;;;8.40;99.90;;;;;;5008416;28;20037;-80
2023/10/25 01:06:08;;;;;;;0.57;0.57;;;8.40;99.90;;;;;;5010792;28;20049;-80
2023/10/25 01:08:34;;;;;;;0.80;0.80;;;8.40;99.90;;;;;;5027226;28;20033;-80
2023/10/25 01:10:59;;;;;;;0.45;0.45;;;8.40;99.90;;;;;;4994485;28;21461;-80
2023/10/25 01:13:25;;;;;;;0.82;0.82;;;8.30;99.90;;;;;;5009340;28;20045;-80
2023/10/25 01:15:51;;;;;;;0.95;0.95;;;8.30;99.90;;;;;;5021498;28;20554;-80
2023/10/25 01:18:16;;;;;;;1.33;1.05;;;8.30;99.90;;;;;;5005768;28;20578;-80
2023/10/25 01:20:43;;;;;;;1.17;1.08;;;8.30;99.90;;;;;;5010967;28;20050;-80
2023/10/25 01:23:08;;;;;;;0.60;0.60;;;8.30;99.90;;;;;;4994853;28;20120;-80
2023/10/25 01:25:35;;;;;;;0.93;0.93;;;8.30;99.90;;;;;;5011094;28;20136;-81
2023/10/25 01:28:01;;;;;;;0.77;0.60;;;8.20;99.90;;;;;;5011884;28;20037;-80
2023/10/25 01:30:26;;;;;;;0.57;0.57;;;8.20;99.90;;;;;;5009307;28;20079;-80
2023/10/25 01:32:53;;;;;;;0.63;0.63;;;8.20;99.90;;;;;;4993548;28;20120;-80
2023/10/25 01:35:19;;;;;;;0.65;0.65;;;8.20;99.90;;;;;;5016735;28;20050;-80
2023/10/25 01:37:47;;;;;;;1.15;1.15;;;8.20;99.90;;;;;;5003700;28;20565;-80
2023/10/25 01:40:13;;;;;;;0.63;0.63;;;8.20;99.90;;;;;;5007863;28;20038;-80
2023/10/25 01:42:39;;;;;;;1.10;1.00;;;8.20;99.90;;;;;;5026190;28;20532;-80
2023/10/25 01:45:05;;;;;;;0.65;0.65;;;8.10;99.90;;;;;;4991941;28;20045;-80
2023/10/25 01:47:30;;;;;;;0.93;0.93;;;8.10;99.90;;;;;;5000218;28;20033;-80
2023/10/25 01:49:56;;;;;;;0.73;0.73;;;8.10;99.90;;;;;;5001603;28;20060;-81
2023/10/25 01:52:22;;;;;;;0.60;0.60;;;8.10;99.90;;;;;;4991000;28;20479;-81
2023/10/25 01:54:50;;;;;;;0.60;0.57;;;8.10;99.90;;;;;;5023708;28;20562;-81
2023/10/25 01:57:16;;;;;;;0.70;0.70;;;8.10;99.90;;;;;;5017480;28;20091;-81
2023/10/25 01:59:43;;;;;;;1.58;1.52;;;8.10;99.90;;;;;;5027065;28;20050;-80
2023/10/25 02:02:10;;;;;;;0.70;0.70;;;8.10;99.90;;;;;;5005011;28;20046;-80
2023/10/25 02:04:36;;;;;;;0.40;0.40;;;8.10;99.90;;;;;;5000092;28;20042;-80
2023/10/25 02:07:02;;;;;;;0.88;0.88;;;8.10;99.90;;;;;;5013080;28;20040;-80
2023/10/25 02:09:28;;;;;;;0.40;0.40;;;8.00;99.90;;;;;;5008718;28;20045;-80
2023/10/25 02:11:54;;;;;;;1.77;1.67;;;8.10;99.90;;;;;;5026758;28;20041;-80
2023/10/25 02:14:19;;;;;;;2.40;1.23;;;8.00;99.90;;;;;;4994067;28;20043;-81
2023/10/25 02:16:45;;;;;;;1.55;1.13;;;8.00;99.90;;;;;;5022030;28;20053;-80
2023/10/25 02:19:11;;;;;;;0.60;0.60;;;8.00;99.90;;;;;;5004640;28;20041;-81
2023/10/25 02:21:37;;;;;;;2.05;1.08;;;8.00;99.90;;;;;;4996113;28;20075;-80
2023/10/25 02:24:03;;;;;;;1.17;1.17;;;8.00;99.90;;;;;;5022629;28;20084;-80
2023/10/25 02:26:29;;;;;;;3.30;2.33;;;8.00;99.90;;;;;;5011294;28;20095;-80
2023/10/25 02:28:55;;;;;;;0.80;0.80;;;8.00;99.90;;;;;;5013060;28;20049;-80
2023/10/25 02:31:21;;;;;;;2.25;2.00;;;8.00;99.90;;;;;;5013640;28;20053;-81
2023/10/25 02:33:47;;;;;;;1.08;0.98;;;8.00;99.90;;;;;;5020865;28;20495;-80
2023/10/25 02:36:13;;;;;;;3.35;0.90;;;8.00;99.90;;;;;;5005954;28;20053;-80
2023/10/25 02:38:38;;;;;;;0.60;0.60;;;8.00;99.90;;;;;;5013145;28;20691;-81
2023/10/25 02:41:04;;;;;;;0.73;0.73;;;8.00;99.90;;;;;;5000840;28;20040;-81
2023/10/25 02:43:31;;;;;;;2.60;1.08;;;8.00;99.90;;;;;;5014266;28;20538;-80
2023/10/25 02:46:07;;;;;;;1.60;1.42;;;7.90;99.90;;;;;;5007576;28;20081;-81
2023/10/25 02:48:33;;;;;;;1.63;1.38;;;8.00;99.90;;;;;;5025728;28;20396;-80
2023/10/25 02:50:59;;;;;;;1.08;1.08;;;8.00;99.90;;;;;;5009466;28;20049;-80
2023/10/25 02:53:25;;;;;;;0.98;0.98;;;7.90;99.90;;;;;;5006384;28;20072;-80
2023/10/25 02:56:01;;;;;;;1.50;1.40;;;8.00;99.90;;;;;;5008867;28;20053;-80
2023/10/25 02:58:28;;;;;;;1.40;0.73;;;8.00;99.90;;;;;;5022043;28;20050;-80
2023/10/25 03:00:56;;;;;;;2.03;1.48;;;7.90;99.90;;;;;;5008367;28;20107;-80
2023/10/25 03:03:22;;;;;;;1.23;1.15;;;7.90;99.90;;;;;;4991715;28;20132;-80
2023/10/25 03:05:48;;;;;;;0.50;0.50;;;7.90;99.90;;;;;;5018865;28;20056;-80
2023/10/25 03:08:13;;;;;;;1.90;0.70;;;7.90;99.90;;;;;;5008402;28;20041;-80
2023/10/25 03:10:39;;;;;;;0.73;0.73;;;7.90;99.90;;;;;;5016167;28;20057;-80
2023/10/25 03:13:06;;;;;;;0.73;0.70;;;7.90;99.90;;;;;;4997850;28;20669;-81
2023/10/25 03:15:32;;;;;;;0.63;0.63;;;7.90;99.90;;;;;;5018993;28;20572;-81
2023/10/25 03:17:57;;;;;;;0.88;0.88;;;7.80;99.90;;;;;;5008624;28;20040;-80
2023/10/25 03:20:23;;;;;;;0.73;0.73;;;7.80;99.90;;;;;;5008555;28;20045;-80
2023/10/25 03:22:48;;;;;;;1.23;1.17;;;7.80;99.90;;;;;;5025546;28;20049;-81
2023/10/25 03:25:14;;;;;;;0.77;0.77;;;7.80;99.90;;;;;;5022405;28;20691;-80
2023/10/25 03:27:40;;;;;;;2.45;1.08;;;7.80;99.90;;;;;;5007611;28;20214;-81
2023/10/25 03:30:06;;;;;;;0.80;0.80;;;7.80;99.90;;;;;;5009445;28;20410;-81
2023/10/25 03:32:32;;;;;;;0.50;0.50;;;7.80;99.90;;;;;;5017186;28;20045;-81
2023/10/25 03:34:57;;;;;;;0.65;0.65;;;7.80;99.90;;;;;;5026045;28;20521;-81
2023/10/25 03:37:23;;;;;;;1.02;1.02;;;7.80;99.90;;;;;;4991671;28;20038;-80
2023/10/25 03:39:49;;;;;;;0.77;0.77;;;7.80;99.90;;;;;;5010967;28;20041;-80
2023/10/25 03:42:15;;;;;;;0.93;0.93;;;7.80;99.90;;;;;;4986525;28;20060;-81
2023/10/25 03:44:40;;;;;;;0.98;0.98;;;7.80;99.90;;;;;;5025407;28;20060;-80
2023/10/25 03:47:06;;;;;;;1.23;1.23;;;7.80;99.90;;;;;;4992650;28;20046;-80
2023/10/25 03:49:31;;;;;;;1.23;1.13;;;7.80;99.90;;;;;;5018612;28;20152;-80
2023/10/25 03:51:57;;;;;;;1.55;0.70;;;7.80;99.90;;;;;;5015197;28;20480;-80
2023/10/25 03:54:23;;;;;;;0.60;0.60;;;7.80;99.90;;;;;;5009918;28;20045;-80
2023/10/25 03:56:49;;;;;;;0.73;0.70;;;7.80;99.90;;;;;;5023284;28;20446;-80
2023/10/25 03:59:15;;;;;;;0.50;0.50;;;7.70;99.90;;;;;;5018062;28;20045;-80
2023/10/25 04:01:41;;;;;;;1.45;1.35;;;7.70;99.90;;;;;;4985951;28;20076;-80
2023/10/25 04:04:09;;;;;;;1.60;1.15;;;7.80;99.90;;;;;;5009138;28;20617;-80
2023/10/25 04:06:35;;;;;;;0.70;0.70;;;7.70;99.90;;;;;;5003572;28;20082;-80
2023/10/25 04:09:01;;;;;;;0.85;0.85;;;7.80;99.90;;;;;;5028654;28;20029;-81
2023/10/25 04:11:27;;;;;;;0.82;0.82;;;7.70;99.90;;;;;;5009066;28;20061;-80
2023/10/25 04:13:53;;;;;;;1.13;1.13;;;7.70;99.90;;;;;;4999985;28;20483;-81
2023/10/25 04:16:19;;;;;;;0.80;0.80;;;7.70;99.90;;;;;;5008971;28;20041;-80
2023/10/25 04:18:44;;;;;;;0.85;0.85;;;7.70;99.90;;;;;;5020720;28;20049;-81
2023/10/25 04:21:12;;;;;;;1.27;1.17;;;7.70;99.90;;;;;;4995503;28;20049;-81
2023/10/25 04:23:38;;;;;;;0.70;0.70;;;7.70;99.90;;;;;;4992052;28;20128;-81
2023/10/25 04:26:04;;;;;;;0.98;0.98;;;7.70;99.90;;;;;;5008180;28;20042;-81
2023/10/25 04:28:30;;;;;;;1.50;1.25;;;7.60;99.90;;;;;;5003506;28;20037;-80
2023/10/25 04:30:56;;;;;;;0.90;0.85;;;7.60;99.90;;;;;;5003647;28;20048;-81
2023/10/25 04:33:21;;;;;;;0.60;0.60;;;7.60;99.90;;;;;;5014369;28;20048;-80
2023/10/25 04:35:47;;;;;;;1.50;1.23;;;7.60;99.90;;;;;;5015730;28;20443;-80
2023/10/25 04:38:12;;;;;;;0.60;0.60;;;7.60;99.90;;;;;;5005955;28;20120;-80
2023/10/25 04:40:38;;;;;;;0.75;0.75;;;7.60;99.90;;;;;;5024357;28;20045;-80
2023/10/25 04:43:04;;;;;;;0.93;0.93;;;7.60;99.90;;;;;;5025736;28;20056;-80
2023/10/25 04:45:29;;;;;;;0.50;0.50;;;7.60;99.90;;;;;;5012747;28;20037;-80
2023/10/25 04:47:55;;;;;;;0.80;0.80;;;7.60;99.90;;;;;;5026364;28;20502;-80
2023/10/25 04:50:21;;;;;;;0.70;0.70;;;7.60;99.90;;;;;;5028330;28;20051;-80
2023/10/25 04:52:50;;;;;;;0.32;0.32;;;7.60;99.90;;;;;;5009833;28;20042;-80
2023/10/25 04:55:16;;;;;;;0.70;0.70;;;7.60;99.90;;;;;;5001380;28;20034;-80
2023/10/25 04:57:42;;;;;;;1.98;1.83;;;7.60;99.90;;;;;;5015437;28;20083;-79
2023/10/25 05:00:11;;;;;;;0.63;0.63;;;7.60;99.90;;;;;;5015458;28;20435;-79
2023/10/25 05:02:40;;;;;;;0.80;0.80;;;7.50;99.90;;;;;;5019877;28;20041;-78
2023/10/25 05:05:07;;;;;;;1.95;1.80;;;7.50;99.90;;;;;;5001106;28;20045;-80
2023/10/25 05:07:34;;;;;;;1.55;1.30;;;7.50;99.90;;;;;;5019595;28;20504;-81
2023/10/25 05:10:00;;;;;;;0.40;0.40;;;7.50;99.90;;;;;;5017163;28;20160;-80
2023/10/25 05:12:42;;;;;;;0.50;0.50;;;7.50;99.90;;;;;;4994026;28;20549;-81
2023/10/25 05:15:09;;;;;;;0.95;0.95;;;7.50;99.90;;;;;;5023906;28;20095;-81
2023/10/25 05:17:35;;;;;;;0.98;0.98;;;7.50;99.90;;;;;;4986639;28;20041;-81
2023/10/25 05:20:04;;;;;;;0.65;0.65;;;7.50;99.90;;;;;;5011677;28;20034;-80
2023/10/25 05:22:39;;;;;;;0.70;0.70;;;7.50;99.90;;;;;;5030233;28;20064;-79
2023/10/25 05:25:07;;;;;;;1.10;1.10;;;7.50;99.90;;;;;;5029069;28;20050;-80
2023/10/25 05:27:33;;;;;;;0.63;0.63;;;7.50;99.90;;;;;;5012188;28;20056;-80
2023/10/25 05:30:03;;;;;;;0.88;0.88;;;7.50;99.90;;;;;;5011040;28;20042;-80
2023/10/25 05:32:34;;;;;;;0.60;0.60;;;7.50;99.90;;;;;;5009574;28;20124;-80
2023/10/25 05:35:01;;;;;;;0.45;0.45;;;7.40;99.90;;;;;;5028242;28;20406;-80
2023/10/25 05:37:27;;;;;;;0.55;0.55;;;7.40;99.90;;;;;;5023420;28;20393;-80
2023/10/25 05:39:53;;;;;;;0.73;0.73;;;7.40;99.90;;;;;;5010575;28;20038;-80
2023/10/25 05:42:20;;;;;;;0.60;0.60;;;7.40;99.90;;;;;;4992505;28;20037;-80
2023/10/25 05:44:47;;;;;;;0.40;0.40;;;7.30;99.90;;;;;;5012176;28;20046;-80
2023/10/25 05:47:14;;;;;;;0.60;0.60;;;7.30;99.90;;;;;;5015472;28;20033;-80
2023/10/25 05:49:40;;;;;;;0.40;0.40;;;7.30;99.90;;;;;;5005085;28;20078;-80
2023/10/25 05:52:07;;;;;;;4.05;0.93;;;7.30;99.90;;;;;;5003700;28;20088;-80
2023/10/25 05:54:35;;;;;;;0.60;0.60;;;7.20;99.90;;;;;;4988166;28;20061;-80
2023/10/25 05:57:02;;;;;;;0.50;0.50;;;7.20;99.90;;;;;;5009444;28;20041;-80
2023/10/25 05:59:28;;;;;;;0.68;0.68;;;7.20;99.90;;;;;;5010917;28;20406;-80
2023/10/25 06:02:10;;;;;;;1.05;1.05;;;7.20;99.90;;;;;;5011393;28;20041;-81
2023/10/25 06:04:37;;;;;;;0.55;0.55;;;7.20;99.90;;;;;;4995379;28;20556;-81
2023/10/25 06:07:03;;;;;;;0.70;0.70;;;7.20;99.90;;;;;;5004253;28;20038;-80
2023/10/25 06:09:29;;;;;;;1.45;1.25;;;7.20;99.90;;;;;;5026382;28;20048;-80
2023/10/25 06:11:56;;;;;;;1.00;0.82;;;7.20;99.90;;;;;;5021143;28;20436;-81
2023/10/25 06:14:22;;;;;;;1.20;0.85;;;7.20;99.90;;;;;;5001621;28;20054;-80
2023/10/25 06:16:48;;;;;;;0.85;0.85;;;7.20;99.90;;;;;;5004712;28;20910;-80
2023/10/25 06:19:14;;;;;;;1.13;1.05;;;7.20;99.90;;;;;;5007761;28;20046;-82
2023/10/25 06:21:39;;;;;;;0.60;0.60;;;7.10;99.90;;;;;;5025449;28;20577;-80
2023/10/25 06:24:05;;;;;;;0.38;0.38;;;7.10;99.90;;;;;;5009829;28;20100;-80
2023/10/25 06:26:31;;;;;;;0.32;0.32;;;7.10;99.90;;;;;;5025532;28;20061;-81
2023/10/25 06:28:56;;;;;;;1.73;1.48;;;7.10;99.90;;;;;;5026774;28;20049;-81
2023/10/25 06:31:22;;;;;;;1.05;1.05;;;7.10;99.90;;;;;;5018621;28;20037;-81
2023/10/25 06:33:48;;;;;;;0.82;0.82;;;7.10;99.90;;;;;;5005835;28;20054;-81
2023/10/25 06:36:14;;;;;;;0.50;0.50;;;7.10;99.90;;;;;;5007566;28;20569;-80
2023/10/25 06:38:40;;;;;;;0.70;0.70;;;7.10;99.90;;;;;;5009220;28;20071;-80
2023/10/25 06:41:17;;;;;;;0.75;0.75;;;7.10;99.90;;;;;;4997020;28;20482;-80
2023/10/25 06:43:43;;;;;;;0.98;0.98;;;7.20;99.90;;;;;;5025958;28;20433;-80
2023/10/25 06:46:10;;;;;;;0.68;0.68;;;7.20;99.90;;;;;;5024969;28;20060;-80
2023/10/25 06:48:37;;;;;;;0.57;0.57;;;7.30;99.90;;;;;;4998013;28;20454;-79
2023/10/25 06:51:05;;;;;;;0.47;0.47;;;7.30;99.90;;;;;;5007590;28;20682;-80
2023/10/25 06:53:31;;;;;;;;;;;7.30;99.90;;;;;;4990976;28;20559;-81
2023/10/25 06:55:57;;;;;;;1.17;0.70;;;7.30;99.90;;;;;;5025610;28;19925;-81
2023/10/25 06:58:23;;;;;;;0.55;0.55;;;7.30;99.90;;;;;;5020874;28;20099;-80
2023/10/25 07:00:50;;;;;;;1.02;0.95;;;7.20;99.90;;;;;;4992855;28;20060;-80
2023/10/25 07:03:20;;;;;;;0.70;0.70;;;7.10;99.90;;;;;;5023699;28;20559;-80
2023/10/25 07:05:46;;;;;;;0.40;0.40;;;7.10;99.90;;;;;;4997245;28;20045;-80
2023/10/25 07:08:13;;;;;;;0.70;0.70;;;7.00;99.90;;;;;;4993727;28;20069;-80
2023/10/25 07:10:39;;;;;;;1.33;0.93;;;6.90;99.90;;;;;;5009310;28;20045;-80
2023/10/25 07:13:05;;;;;;;0.65;0.65;;;6.90;99.90;;;;;;4995204;28;20092;-80
2023/10/25 07:15:32;;;;;;;1.67;1.20;;;6.80;99.90;;;;;;5019457;28;20446;-80
2023/10/25 07:17:58;;;;;;;0.55;0.55;;;6.80;99.90;;;;;;4989104;28;20481;-80
2023/10/25 07:20:24;;;;;;;0.52;0.52;;;6.80;99.90;;;;;;5009479;28;20038;-80
2023/10/25 07:22:49;;;;;;;0.60;0.60;;;6.80;99.90;;;;;;4994089;28;20103;-80
2023/10/25 07:25:16;;;;;;;0.60;0.60;;;6.80;99.90;;;;;;4993665;28;20132;-80
2023/10/25 07:27:42;;;;;;;1.27;0.90;;;6.80;99.90;;;;;;5010186;28;20049;-80
2023/10/25 07:30:08;;;;;;;1.02;0.80;;;6.80;99.90;;;;;;5009129;28;20044;-80
2023/10/25 07:32:35;;;;;;;0.50;0.50;;;6.80;99.90;;;;;;5008832;28;20084;-80
2023/10/25 07:35:01;;;;;;;1.10;1.05;;;6.90;99.90;;;;;;5006615;28;20401;-80
2023/10/25 07:37:27;;;;;;;0.63;0.63;;;6.90;99.90;;;;;;5004432;28;20049;-80
2023/10/25 07:39:53;;;;;;;0.55;0.55;;;6.90;99.90;;;;;;5008578;28;20753;-80
2023/10/25 07:42:19;;;;;;;0.70;0.70;;;7.00;99.90;;;;;;5008750;28;20045;-80
2023/10/25 07:44:45;;;;;;;0.88;0.80;;;7.00;99.90;;;;;;4992824;28;20394;-80
2023/10/25 07:47:10;;;;;;;0.43;0.43;;;7.00;99.90;;;;;;5007636;28;20383;-81
2023/10/25 07:49:36;;;;;;;1.17;0.70;;;7.10;99.90;;;;;;4992280;28;20049;-80
2023/10/25 07:52:03;;;;;;;0.80;0.80;;;7.10;99.90;;;;;;5005112;28;20120;-80
2023/10/25 07:54:28;;;;;;;0.57;0.57;;;7.10;99.90;;;;;;5010039;28;20030;-80
2023/10/25 07:56:54;;;;;;;0.50;0.50;;;7.20;99.90;;;;;;5008096;28;20116;-79
2023/10/25 07:59:20;;;;;;;0.73;0.70;;;7.20;99.90;;;;;;4987233;28;20040;-80
2023/10/25 08:01:46;;;;;;;0.55;0.55;;;7.20;99.90;;;;;;4992737;28;20437;-79
2023/10/25 08:04:12;;;;;;;0.45;0.45;;;7.30;99.90;;;;;;5007256;28;20057;-80
2023/10/25 08:06:38;;;;;;;1.23;0.60;;;7.40;99.90;;;;;;5012298;28;20041;-80
2023/10/25 08:09:03;;;;;;;0.38;0.38;;;7.40;99.90;;;;;;5008292;28;20459;-80
2023/10/25 08:11:34;;;;;;;0.47;0.47;;;7.50;99.90;;;;;;5013098;28;20152;-80
2023/10/25 08:14:00;;;;;;;0.50;0.50;;;7.50;99.90;;;;;;5009932;28;20146;-80
2023/10/25 08:16:25;;;;;;;0.63;0.63;;;7.60;99.90;;;;;;5027319;28;20140;-81
2023/10/25 08:18:51;;;;;;;0.60;0.60;;;7.70;99.90;;;;;;5012143;28;20041;-80
2023/10/25 08:21:17;;;;;;;0.50;0.50;;;7.70;99.90;;;;;;5020289;28;20384;-80
2023/10/25 08:23:45;;;;;;;0.40;0.40;;;7.80;99.90;;;;;;4995280;28;20048;-80
2023/10/25 08:26:11;;;;;;;0.70;0.70;;;7.90;99.90;;;;;;5006246;28;20517;-80
2023/10/25 08:28:37;;;;;;;1.00;0.90;;;8.00;99.90;;;;;;4994024;28;20866;-80
2023/10/25 08:31:13;;;;;;;0.85;0.85;;;8.10;99.90;;;;;;5009516;28;20048;-80
2023/10/25 08:33:39;;;;;;;1.15;1.05;;;8.10;99.90;;;;;;5017871;28;20046;-80
2023/10/25 08:36:06;;;;;;;1.65;0.80;;;8.20;99.90;;;;;;4989049;28;20572;-80
2023/10/25 08:38:31;;;;;;;0.50;0.50;;;8.30;99.90;;;;;;5011493;28;20047;-80
2023/10/25 08:41:05;;;;;;;0.40;0.40;;;8.30;99.90;;;;;;5023807;28;20041;-80
2023/10/25 08:43:33;;;;;;;3.22;1.60;;;8.40;99.90;;;;;;5012446;28;20049;-80
2023/10/25 08:45:59;;;;;;;0.50;0.50;;;8.40;99.90;;;;;;4996516;28;20122;-79
2023/10/25 08:48:25;;;;;;;0.90;0.90;;;8.40;99.90;;;;;;5028829;28;20042;-80
2023/10/25 08:50:51;;;;;;;0.60;0.60;;;8.50;99.90;;;;;;4995750;28;20052;-80
2023/10/25 08:53:24;;;;;;;0.60;0.60;;;8.60;99.90;;;;;;5028732;28;20127;-80
2023/10/25 08:55:54;;;;;;;0.40;0.40;;;8.70;99.90;;;;;;5012863;28;20403;-80
2023/10/25 08:58:21;;;;;;;0.93;0.93;;;8.70;99.90;;;;;;4994231;28;20054;-80
2023/10/25 09:00:47;;;;;;;0.50;0.50;;;8.80;99.90;;;;;;5006630;28;20057;-80
2023/10/25 09:03:31;;;;;;;0.60;0.60;;;8.80;99.90;;;;;;5022847;28;20045;-79
2023/10/25 09:05:58;;;;;;;0.68;0.68;;;8.90;99.90;;;;;;4998703;28;20049;-80
2023/10/25 09:08:24;;;;;;;1.40;1.33;;;8.90;99.90;;;;;;5007855;28;20033;-79
2023/10/25 09:10:55;;;;;;;0.60;0.60;;;9.00;99.90;;;;;;5010913;28;20093;-80
2023/10/25 09:13:21;;;;;;;0.60;0.60;;;9.00;99.90;;;;;;5005367;28;20062;-79
2023/10/25 09:15:47;;;;;;;0.65;0.65;;;9.10;99.90;;;;;;5026376;28;20076;-79
2023/10/25 09:18:13;;;;;;;1.38;1.17;;;9.20;99.90;;;;;;5014254;28;20065;-80
2023/10/25 09:20:38;;;;;;;2.80;1.20;;;9.30;99.90;;;;;;4990866;28;20052;-79
2023/10/25 09:23:11;;;;;;;0.73;0.73;;;9.40;99.90;;;;;;5021879;28;20498;-80
2023/10/25 09:25:37;;;;;;;0.75;0.75;;;9.50;99.90;;;;;;5006779;28;20041;-79
2023/10/25 09:28:28;;;;;;;0.75;0.60;;;9.70;99.90;;;;;;5026569;28;20042;-79
2023/10/25 09:31:01;;;;;;;0.90;0.90;;;9.80;99.90;;;;;;5008403;28;20049;-79
2023/10/25 09:33:30;;;;;;;0.70;0.70;;;10.00;99.90;;;;;;5007921;28;20096;-78
2023/10/25 09:35:57;;;;;;;1.92;1.60;;;10.30;99.90;;;;;;5019536;28;20569;-79
2023/10/25 09:38:24;;;;;;;1.33;1.23;;;10.50;99.90;;;;;;5024679;28;20049;-79
2023/10/25 09:40:51;;;;;;;4.03;1.48;;;10.70;99.90;;;;;;5028728;28;20045;-78
2023/10/25 09:43:21;;;;;;;1.38;1.27;;;10.90;99.90;;;;;;5013402;28;20406;-78
2023/10/25 09:45:52;;;;;;;1.17;1.13;;;11.20;99.90;;;;;;4994419;28;20045;-78
2023/10/25 09:48:19;;;;;;;0.63;0.63;;;11.30;99.90;;;;;;4999054;28;20092;-79
2023/10/25 09:50:57;;;;;;;3.70;1.35;;;11.40;99.90;;;;;;5024594;28;20651;-79
2023/10/25 09:53:40;;;;;;;1.42;1.20;;;11.50;99.90;;;;;;5011368;28;20045;-78
2023/10/25 09:56:08;;;;;;;1.80;1.70;;;11.70;99.90;;;;;;5024875;28;20049;-79
2023/10/25 09:58:35;;;;;;;0.88;0.88;;;11.80;99.90;;;;;;5026783;28;20494;-79
2023/10/25 10:01:03;;;;;;;1.20;1.10;;;11.80;99.90;;;;;;4995093;28;20046;-78
2023/10/25 10:03:52;;;;;;;3.38;1.70;;;11.90;99.90;;;;;;5021815;28;20076;-80
2023/10/25 10:06:33;;;;;;;0.93;0.93;;;11.90;99.90;;;;;;5005358;28;20668;-80
2023/10/25 10:09:21;;;;;;;1.15;0.95;;;12.00;99.90;;;;;;5015485;28;20045;-80
2023/10/25 10:11:53;;;;;;;1.27;1.17;;;12.10;99.90;;;;;;5010367;28;20048;-79
2023/10/25 10:14:28;;;;;;;1.63;1.35;;;12.20;99.90;;;;;;4998622;28;20627;-79
2023/10/25 10:17:03;;;;;;;3.30;1.00;;;12.30;99.90;;;;;;4996002;28;20384;-79
2023/10/25 10:19:31;;;;;;;0.95;0.95;;;12.40;99.90;;;;;;5003674;28;20087;-79
2023/10/25 10:22:13;;;;;;;3.20;0.95;;;12.50;99.90;;;;;;5009957;28;20098;-79
2023/10/25 10:24:43;;;;;;;1.83;1.65;;;12.60;99.90;;;;;;4987023;28;20532;-79
2023/10/25 10:27:14;;;;;;;0.77;0.77;;;12.80;99.90;;;;;;5009217;28;20057;-80
2023/10/25 10:29:41;;;;;;;1.05;1.00;;;12.80;99.90;;;;;;5025428;28;20041;-80
2023/10/25 10:32:08;;;;;;;0.75;0.75;;;12.80;99.90;;;;;;5010542;28;20616;-79
2023/10/25 10:34:45;;;;;;;0.47;0.47;;;12.80;99.90;;;;;;5018458;28;20057;-79
2023/10/25 10:37:21;;;;;;;1.00;1.00;;;12.80;99.90;;;;;;5003220;28;20096;-79
2023/10/25 10:39:56;;;;;;;0.95;0.95;;;12.80;99.90;;;;;;5024920;28;20041;-79
2023/10/25 10:42:31;;;;;;;0.57;0.57;;;12.90;99.90;;;;;;5024488;28;20045;-79
2023/10/25 10:45:10;;;;;;;0.50;0.50;;;12.80;99.90;;;;;;5000708;28;20041;-79
2023/10/25 10:47:55;;;;;;;1.17;1.17;;;12.70;99.90;;;;;;5009347;28;20067;-79
2023/10/25 10:50:23;;;;;;;1.48;1.05;;;12.60;99.90;;;;;;5003574;28;20798;-79
2023/10/25 10:52:50;;;;;;;0.68;0.68;;;12.60;99.90;;;;;;5001665;28;20087;-79
2023/10/25 10:55:21;;;;;;;0.40;0.40;;;12.50;99.90;;;;;;5001572;28;20087;-78
2023/10/25 10:57:47;;;;;;;0.80;0.80;;;12.50;99.90;;;;;;5025713;28;20041;-78
2023/10/25 11:00:16;;;;;;;0.60;0.60;;;12.40;99.90;;;;;;5002603;28;20559;-79
2023/10/25 11:02:47;;;;;;;0.60;0.60;;;12.40;99.90;;;;;;4993085;28;20041;-78
2023/10/25 11:05:15;;;;;;;0.98;0.93;;;12.40;99.90;;;;;;5023283;28;20049;-79
2023/10/25 11:07:42;;;;;;;0.98;0.95;;;12.40;99.90;;;;;;5011207;28;20124;-78
2023/10/25 11:10:11;;;;;;;0.75;0.70;;;12.40;99.90;;;;;;4999704;28;20054;-78
2023/10/25 11:12:37;;;;;;;0.50;0.50;;;12.40;99.90;;;;;;5008503;28;20551;-78
2023/10/25 11:15:04;;;;;;;2.00;1.38;;;12.40;99.90;;;;;;5009228;28;20045;-78
2023/10/25 11:17:31;;;;;;;1.10;1.08;;;12.40;99.90;;;;;;5002573;28;20045;-78
2023/10/25 11:19:56;;;;;;;0.85;0.80;;;12.40;99.90;;;;;;5006717;28;20056;-78
2023/10/25 11:22:22;;;;;;;0.40;0.40;;;12.30;99.90;;;;;;5025067;28;20041;-78
2023/10/25 11:24:50;;;;;;;0.57;0.57;;;12.30;99.90;;;;;;5008870;28;20037;-78
2023/10/25 11:27:15;;;;;;;0.40;0.40;;;12.40;99.90;;;;;;4989634;28;20504;-78
2023/10/25 11:29:41;;;;;;;1.55;1.45;;;12.40;99.90;;;;;;5002967;28;20037;-78
2023/10/25 11:32:11;;;;;;;1.50;1.40;;;12.30;99.90;;;;;;5008741;28;20769;-78
2023/10/25 11:34:41;;;;;;;5.50;1.58;;;12.40;99.90;;;;;;5004655;28;20050;-78
2023/10/25 11:37:07;;;;;;;0.75;0.75;;;12.30;99.90;;;;;;5009232;28;20443;-78
2023/10/25 11:39:53;;;;;;;0.95;0.95;;;12.30;99.90;;;;;;5023110;28;20052;-78
2023/10/25 11:42:19;;;;;;;0.90;0.90;;;12.30;99.90;;;;;;5024431;28;20045;-78
2023/10/25 11:44:45;;;;;;;0.80;0.80;;;12.30;99.90;;;;;;5021331;28;20094;-78
2023/10/25 11:47:18;;;;;;;0.50;0.50;;;12.30;99.90;;;;;;5008136;28;20045;-78
2023/10/25 11:49:44;;;;;;;0.55;0.55;;;12.30;99.90;;;;;;5008068;28;20038;-77
2023/10/25 11:52:09;;;;;;;0.85;0.85;;;12.20;99.90;;;;;;5025844;28;20041;-78
2023/10/25 11:54:35;;;;;;;0.95;0.60;;;12.20;99.90;;;;;;5017942;28;20034;-78
2023/10/25 11:57:01;;;;;;;0.98;0.98;;;12.20;99.90;;;;;;5004229;28;20048;-77
2023/10/25 11:59:26;;;;;;;1.08;0.98;;;12.20;99.90;;;;;;5006853;28;20046;-78
2023/10/25 12:01:52;;;;;;;0.50;0.50;;;12.20;99.90;;;;;;5013022;28;20043;-78
2023/10/25 12:04:17;;;;;;;0.40;0.40;;;12.10;99.90;;;;;;5007184;28;20665;-77
2023/10/25 12:06:43;;;;;;;1.58;0.65;;;12.10;99.90;;;;;;5024774;28;20092;-77
2023/10/25 12:09:09;;;;;;;0.60;0.60;;;12.20;99.90;;;;;;5013740;28;20041;-77
2023/10/25 12:11:34;;;;;;;1.10;1.00;;;12.10;99.90;;;;;;5007922;28;20053;-77
2023/10/25 12:14:00;;;;;;;0.63;0.63;;;12.10;99.90;;;;;;5003485;28;20402;-78
2023/10/25 12:16:26;;;;;;;0.40;0.40;;;12.10;99.90;;;;;;5004743;28;20483;-78
2023/10/25 12:18:52;;;;;;;0.50;0.50;;;12.10;99.90;;;;;;5020110;28;20566;-77
2023/10/25 12:21:18;;;;;;;0.30;0.30;;;12.10;99.90;;;;;;4998281;28;20050;-77
2023/10/25 12:23:43;;;;;;;0.68;0.68;;;12.10;99.90;;;;;;5022547;28;20037;-78
2023/10/25 12:26:10;;;;;;;0.65;0.65;;;12.10;99.90;;;;;;5008524;28;20083;-78
2023/10/25 12:28:37;;;;;;;2.80;0.65;;;12.10;99.90;;;;;;5009976;28;20049;-77
2023/10/25 12:31:02;;;;;;;0.57;0.57;;;12.00;99.90;;;;;;5018099;28;20125;-77
2023/10/25 12:33:28;;;;;;;0.93;0.50;;;12.00;99.90;;;;;;4990500;28;20116;-78
2023/10/25 12:35:54;;;;;;;0.43;0.43;;;12.00;99.90;;;;;;5026612;28;20402;-77
2023/10/25 12:38:20;;;;;;;0.50;0.50;;;11.90;99.90;;;;;;5008653;28;20495;-78
2023/10/25 12:40:45;;;;;;;0.77;0.77;;;11.90;99.90;;;;;;5007180;28;20049;-79
2023/10/25 12:43:11;;;;;;;0.75;0.75;;;11.90;99.90;;;;;;5007770;28;20065;-79
2023/10/25 12:45:37;;;;;;;0.50;0.50;;;11.80;99.90;;;;;;4990897;28;20116;-79
2023/10/25 12:48:02;;;;;;;1.17;1.08;;;11.80;99.90;;;;;;5005955;28;20125;-79
2023/10/25 12:50:28;;;;;;;0.70;0.70;;;11.80;99.90;;;;;;4988616;28;20112;-79
2023/10/25 12:52:54;;;;;;;0.45;0.45;;;11.70;99.90;;;;;;4992608;28;20042;-80
2023/10/25 12:55:19;;;;;;;0.40;0.40;;;11.60;99.90;;;;;;5011555;28;20128;-79